Time;durP1;ratioP1;P1;durP2;ratioP2;P2;SDS_P1;SDS_P2;PMS_P1;PMS_P2;Temp;Humidity;BMP_temperature;BMP_pressure;BME280_temperature;BME280_humidity;BME280_pressure;Samples;Min_cycle;Max_cycle;Signal;HPM_P1;HPM_P2
2023/01/01 00:00:09;;;;;;;22.23;13.25;;;;;;;10.09;100.00;101456.81;5085935;28;20035;-68
2023/01/01 00:02:35;;;;;;;20.30;13.43;;;;;;;10.07;100.00;101453.34;5088921;28;20031;-67
2023/01/01 00:05:00;;;;;;;19.98;12.23;;;;;;;10.05;100.00;101450.75;5068693;28;20485;-68
2023/01/01 00:07:25;;;;;;;19.30;11.88;;;;;;;10.07;100.00;101454.22;5068490;28;20029;-67
2023/01/01 00:12:35;;;;;;;15.50;10.63;;;;;;;9.95;100.00;101435.38;5081469;28;20239;-68
2023/01/01 00:15:00;;;;;;;16.10;10.20;;;;;;;10.05;100.00;101449.88;5083200;28;20028;-68
2023/01/01 00:17:27;;;;;;;16.67;9.82;;;;;;;10.04;100.00;101461.56;5080355;28;20020;-68
2023/01/01 00:19:53;;;;;;;20.08;10.35;;;;;;;10.01;100.00;101465.31;5068190;28;20105;-68
2023/01/01 00:22:18;;;;;;;19.55;10.13;;;;;;;9.98;100.00;101456.63;5068082;28;20522;-68
2023/01/01 00:24:44;;;;;;;17.48;9.80;;;;;;;10.00;100.00;101471.63;5071287;28;20024;-68
2023/01/01 00:27:09;;;;;;;14.60;9.40;;;;;;;9.94;100.00;101460.47;5087024;28;20036;-68
2023/01/01 00:29:34;;;;;;;13.63;8.95;;;;;;;9.92;100.00;101467.75;5088486;28;20031;-68
2023/01/01 00:32:00;;;;;;;16.17;9.68;;;;;;;9.91;100.00;101469.59;5086764;28;20039;-68
2023/01/01 00:34:25;;;;;;;14.18;10.02;;;;;;;9.76;100.00;101449.16;5088290;28;20023;-68
2023/01/01 00:36:51;;;;;;;17.55;9.90;;;;;;;9.83;100.00;101466.53;5069138;28;20028;-68
2023/01/01 00:39:16;;;;;;;20.65;11.82;;;;;;;9.81;100.00;101475.66;5079885;28;20037;-68
2023/01/01 00:41:42;;;;;;;20.58;12.85;;;;;;;9.77;100.00;101474.16;5088176;28;20389;-68
2023/01/01 00:44:07;;;;;;;22.17;14.73;;;;;;;9.74;100.00;101472.50;5088165;28;20031;-68
2023/01/01 00:46:32;;;;;;;21.63;14.05;;;;;;;9.71;100.00;101469.19;5071222;28;20078;-68
2023/01/01 00:48:58;;;;;;;27.23;15.48;;;;;;;9.67;100.00;101468.50;5080356;28;20470;-68
2023/01/01 00:51:23;;;;;;;21.90;15.25;;;;;;;9.67;100.00;101475.72;5088024;28;20220;-68
2023/01/01 00:53:49;;;;;;;22.90;15.18;;;;;;;9.63;100.00;101484.88;5087893;28;20032;-68
2023/01/01 00:56:14;;;;;;;21.63;14.68;;;;;;;9.59;100.00;101478.88;5085481;28;20516;-68
2023/01/01 00:58:40;;;;;;;22.77;13.82;;;;;;;9.57;100.00;101480.78;5077452;28;20141;-68
2023/01/01 01:01:05;;;;;;;23.98;14.45;;;;;;;9.54;100.00;101477.47;5087703;28;20085;-68
2023/01/01 01:03:31;;;;;;;18.90;12.85;;;;;;;9.51;100.00;101475.81;5071254;28;20533;-68
2023/01/01 01:05:56;;;;;;;19.67;12.52;;;;;;;9.50;100.00;101482.16;5072469;28;20052;-68
2023/01/01 01:08:21;;;;;;;22.30;13.82;;;;;;;9.34;100.00;101454.66;5075394;28;20036;-68
2023/01/01 01:10:47;;;;;;;19.13;12.45;;;;;;;9.38;100.00;101461.53;5069068;28;20028;-68
2023/01/01 01:13:12;;;;;;;21.08;11.95;;;;;;;9.50;100.00;101492.88;5077274;28;20110;-68
2023/01/01 01:15:38;;;;;;;18.85;11.98;;;;;;;9.47;100.00;101487.72;5084740;28;20031;-68
2023/01/01 01:18:03;;;;;;;17.08;10.48;;;;;;;9.32;100.00;101461.06;5082055;28;20028;-68
2023/01/01 01:20:29;;;;;;;14.95;10.93;;;;;;;9.35;100.00;101468.91;5086595;28;20107;-67
2023/01/01 01:22:54;;;;;;;19.23;11.80;;;;;;;9.45;100.00;101478.94;5067421;28;20094;-68
2023/01/01 01:25:20;;;;;;;19.85;11.40;;;;;;;9.43;100.00;101480.84;5066593;28;20036;-68
2023/01/01 01:27:45;;;;;;;19.60;12.10;;;;;;;9.39;100.00;101473.97;5070424;28;20177;-68
2023/01/01 01:30:11;;;;;;;20.83;11.27;;;;;;;9.33;100.00;101469.84;5080514;28;20021;-68
2023/01/01 01:32:36;;;;;;;20.73;11.60;;;;;;;9.31;100.00;101481.63;5068970;28;20029;-68
2023/01/01 01:35:02;;;;;;;16.70;10.85;;;;;;;9.30;100.00;101477.22;5076104;28;20028;-68
2023/01/01 01:37:27;;;;;;;15.90;10.90;;;;;;;9.26;100.00;101473.03;5066973;28;20093;-68
2023/01/01 01:39:53;;;;;;;16.85;10.18;;;;;;;9.27;100.00;101480.09;5085924;28;20024;-68
2023/01/01 01:42:18;;;;;;;17.42;10.23;;;;;;;9.18;100.00;101467.31;5077653;28;20043;-68
2023/01/01 01:44:58;;;;;;;16.85;10.38;;;;;;;9.22;100.00;101482.19;5084379;28;20036;-67
2023/01/01 01:47:44;;;;;;;13.38;9.27;;;;;;;9.20;100.00;101484.97;5086738;28;20036;-69
2023/01/01 01:50:15;;;;;;;18.10;10.13;;;;;;;9.05;100.00;101455.66;5069139;28;20109;-68
2023/01/01 01:52:55;;;;;;;14.68;9.52;;;;;;;9.12;100.00;101487.28;5070398;28;20036;-68
2023/01/01 01:55:21;;;;;;;14.23;9.50;;;;;;;9.02;100.00;101488.84;5066463;28;20032;-68
2023/01/01 01:57:47;;;;;;;12.88;9.65;;;;;;;9.00;100.00;101484.53;5066973;28;20028;-68
2023/01/01 02:00:13;;;;;;;18.25;10.15;;;;;;;8.94;100.00;101488.44;5084208;28;20531;-68
2023/01/01 02:02:47;;;;;;;13.95;9.23;;;;;;;8.90;100.00;101483.41;5070725;28;20377;-68
2023/01/01 02:05:12;;;;;;;14.93;9.60;;;;;;;8.83;100.00;101485.59;5069183;28;20070;-68
2023/01/01 02:07:38;;;;;;;16.42;10.35;;;;;;;8.66;100.00;101458.16;5066162;28;20526;-68
2023/01/01 02:10:04;;;;;;;15.27;8.93;;;;;;;8.73;100.00;101471.06;5081735;28;20115;-67
2023/01/01 02:12:30;;;;;;;18.73;11.25;;;;;;;8.83;100.00;101482.91;5076397;28;20086;-68
2023/01/01 02:14:56;;;;;;;14.10;10.30;;;;;;;8.81;100.00;101471.44;5081905;28;20028;-68
2023/01/01 02:17:30;;;;;;;16.92;10.77;;;;;;;8.79;100.00;101469.81;5085834;28;20497;-68
2023/01/01 02:20:22;;;;;;;15.30;10.27;;;;;;;8.83;100.00;101474.00;5080563;28;20028;-68
2023/01/01 02:23:01;;;;;;;14.75;10.60;;;;;;;8.84;100.00;101476.59;5065354;28;20036;-68
2023/01/01 02:25:47;;;;;;;17.58;11.60;;;;;;;8.84;100.00;101470.41;5066982;28;20398;-68
2023/01/01 02:28:23;;;;;;;18.02;12.02;;;;;;;8.83;100.00;101474.00;5071186;28;20075;-68
2023/01/01 02:30:52;;;;;;;21.48;12.57;;;;;;;8.82;100.00;101475.84;5067630;28;20108;-68
2023/01/01 02:33:23;;;;;;;22.13;13.55;;;;;;;8.82;100.00;101469.63;5072959;28;20285;-68
2023/01/01 02:35:55;;;;;;;22.52;14.10;;;;;;;8.75;100.00;101460.25;5070013;28;20012;-68
2023/01/01 02:38:43;;;;;;;24.95;14.27;;;;;;;8.67;100.00;101444.69;5071890;28;20390;-67
2023/01/01 02:41:12;;;;;;;20.83;14.85;;;;;;;8.79;100.00;101467.13;5070508;28;20032;-68
2023/01/01 02:43:38;;;;;;;22.83;14.05;;;;;;;8.75;100.00;101465.63;5081145;28;20036;-68
2023/01/01 02:46:06;;;;;;;26.92;13.45;;;;;;;8.70;100.00;101465.03;5068550;28;20407;-68
2023/01/01 02:48:38;;;;;;;19.85;14.45;;;;;;;8.65;100.00;101464.47;5075299;28;20036;-68
2023/01/01 02:51:13;;;;;;;22.35;15.18;;;;;;;8.61;100.00;101470.97;5081777;28;20050;-68
2023/01/01 02:53:51;;;;;;;21.67;15.23;;;;;;;8.53;100.00;101466.09;5070884;28;20036;-68
2023/01/01 02:56:24;;;;;;;30.13;17.83;;;;;;;8.47;100.00;101468.25;5078471;28;20030;-68
2023/01/01 03:02:26;;;;;;;23.05;14.32;;;;;;;8.40;100.00;101453.53;5064734;28;20040;-68
2023/01/01 03:05:09;;;;;;;21.75;14.88;;;;;;;8.37;100.00;101461.75;5066278;28;20070;-68
2023/01/01 03:07:45;;;;;;;23.10;14.23;;;;;;;8.22;100.00;101443.97;5067471;28;20035;-68
2023/01/01 03:10:23;;;;;;;25.48;15.85;;;;;;;8.36;100.00;101479.63;5075814;28;20070;-68
2023/01/01 03:13:24;;;;;;;19.67;13.77;;;;;;;8.32;100.00;101482.56;5071038;28;20044;-68
2023/01/01 03:16:54;;;;;;;21.02;14.45;;;;;;;8.29;100.00;101478.25;5071869;28;20048;-68
2023/01/01 03:19:28;;;;;;;20.55;13.88;;;;;;;8.34;100.00;101492.22;4994305;28;20176;-68
2023/01/01 03:22:03;;;;;;;24.92;14.38;;;;;;;8.31;100.00;101491.50;5032592;28;20464;-68
2023/01/01 03:24:38;;;;;;;20.25;12.98;;;;;;;8.30;100.00;101489.81;5059280;28;20127;-68
2023/01/01 03:27:06;;;;;;;;;;;;;;;8.27;100.00;101498.88;5070458;28;20371;-68
2023/01/01 03:29:34;;;;;;;23.70;14.15;;;;;;;8.21;100.00;101491.19;5065893;28;19916;-68
2023/01/01 03:32:04;;;;;;;26.67;13.82;;;;;;;8.24;100.00;101498.19;5067044;28;20156;-68
2023/01/01 03:34:34;;;;;;;21.23;13.90;;;;;;;8.21;100.00;101493.84;5068268;28;20020;-68
2023/01/01 03:37:07;;;;;;;23.00;14.25;;;;;;;8.21;100.00;101492.97;5067937;28;20024;-67
2023/01/01 03:39:37;;;;;;;19.42;12.63;;;;;;;8.10;100.00;101484.75;5069330;28;20436;-68
2023/01/01 03:42:22;;;;;;;22.25;13.23;;;;;;;8.16;100.00;101501.28;5069097;28;20520;-68
2023/01/01 03:44:55;;;;;;;19.05;13.38;;;;;;;8.17;100.00;101494.13;5073458;28;20417;-68
2023/01/01 03:47:20;;;;;;;25.40;16.42;;;;;;;8.20;100.00;101510.84;5073666;28;20056;-68
2023/01/01 03:49:46;;;;;;;45.65;28.02;;;;;;;8.19;100.00;101498.41;5071346;28;20031;-68
2023/01/01 03:52:19;;;;;;;27.67;16.30;;;;;;;8.17;100.00;101500.34;5071455;28;20448;-68
2023/01/01 03:55:15;;;;;;;19.08;13.48;;;;;;;8.15;100.00;101504.03;5069439;28;20067;-67
2023/01/01 03:58:21;;;;;;;20.10;12.57;;;;;;;8.17;100.00;101510.16;5071442;28;20043;-67
2023/01/01 04:00:59;;;;;;;18.60;11.95;;;;;;;8.13;100.00;101498.78;5070131;28;20043;-67
2023/01/01 04:03:27;;;;;;;19.67;12.20;;;;;;;8.14;100.00;101499.66;5069925;28;20082;-67
2023/01/01 04:05:53;;;;;;;17.67;11.88;;;;;;;8.14;100.00;101503.19;5069363;28;20040;-67
2023/01/01 04:08:19;;;;;;;18.23;10.85;;;;;;;8.07;100.00;101485.81;5070333;28;20020;-68
2023/01/01 04:10:49;;;;;;;21.05;12.43;;;;;;;8.18;100.00;101506.53;5068042;28;20032;-68
2023/01/01 04:13:15;;;;;;;16.95;11.23;;;;;;;8.18;100.00;101507.41;5069754;28;20043;-67
2023/01/01 04:15:40;;;;;;;17.77;10.50;;;;;;;8.19;100.00;101497.56;5083695;28;20017;-68
2023/01/01 04:18:06;;;;;;;19.00;11.25;;;;;;;8.20;100.00;101496.63;5069857;28;20052;-67
2023/01/01 04:20:32;;;;;;;16.48;11.73;;;;;;;8.22;100.00;101500.94;5068345;28;20024;-67
2023/01/01 04:22:59;;;;;;;15.20;10.60;;;;;;;8.21;100.00;101495.66;5069964;28;20127;-67
2023/01/01 04:25:26;;;;;;;16.02;11.23;;;;;;;8.22;100.00;101494.75;5074663;28;20040;-67
2023/01/01 04:27:51;;;;;;;20.98;11.95;;;;;;;8.21;100.00;101496.53;5072060;28;20033;-67
2023/01/01 04:30:17;;;;;;;18.20;11.02;;;;;;;8.21;100.00;101492.97;5070409;28;20043;-67
2023/01/01 04:32:43;;;;;;;15.48;10.88;;;;;;;8.01;100.00;101467.47;5070876;28;20047;-67
2023/01/01 04:35:13;;;;;;;16.75;10.73;;;;;;;8.15;100.00;101494.22;5070001;28;20022;-68
2023/01/01 04:37:40;;;;;;;17.25;10.52;;;;;;;8.04;100.00;101485.13;5070835;28;20036;-68
2023/01/01 04:40:07;;;;;;;16.35;11.07;;;;;;;8.17;100.00;101499.47;5069912;28;20020;-68
2023/01/01 04:42:33;;;;;;;18.70;10.23;;;;;;;8.18;100.00;101506.53;5087407;28;20363;-68
2023/01/01 04:44:58;;;;;;;17.35;10.98;;;;;;;8.16;100.00;101501.28;5069740;28;20047;-67
2023/01/01 04:47:25;;;;;;;14.70;10.30;;;;;;;8.12;100.00;101496.19;5083736;28;20102;-67
2023/01/01 04:49:51;;;;;;;13.52;9.00;;;;;;;8.12;100.00;101502.41;5069982;28;20036;-67
2023/01/01 04:52:16;;;;;;;16.27;9.80;;;;;;;8.14;100.00;101502.31;5076296;28;20024;-67
2023/01/01 04:54:42;;;;;;;19.40;10.75;;;;;;;8.11;100.00;101508.72;5080721;28;20047;-68
2023/01/01 04:57:07;;;;;;;14.48;10.27;;;;;;;8.11;100.00;101508.72;5072970;28;20479;-67
2023/01/01 04:59:33;;;;;;;16.00;10.23;;;;;;;8.10;100.00;101508.81;5080356;28;20074;-67
2023/01/01 05:01:58;;;;;;;14.88;9.93;;;;;;;8.09;100.00;101501.75;5072133;28;20085;-67
2023/01/01 05:04:23;;;;;;;14.73;9.90;;;;;;;8.07;100.00;101495.63;5077430;28;20043;-67
2023/01/01 05:06:49;;;;;;;19.42;10.02;;;;;;;8.05;100.00;101503.72;5071796;28;20021;-67
2023/01/01 05:09:14;;;;;;;14.95;9.13;;;;;;;8.01;100.00;101504.00;5082631;28;20476;-68
2023/01/01 05:11:40;;;;;;;18.75;9.50;;;;;;;7.98;100.00;101505.03;5071312;28;20051;-67
2023/01/01 05:14:06;;;;;;;15.27;9.55;;;;;;;8.01;100.00;101514.69;5082676;28;20048;-68
2023/01/01 05:16:34;;;;;;;17.45;10.98;;;;;;;7.96;100.00;101514.09;5079470;28;20043;-67
2023/01/01 05:19:00;;;;;;;14.15;8.75;;;;;;;7.95;100.00;101523.03;5082687;28;20048;-67
2023/01/01 05:21:32;;;;;;;16.02;9.98;;;;;;;7.92;100.00;101509.88;5072375;28;20032;-67
2023/01/01 05:24:00;;;;;;;13.65;9.02;;;;;;;7.89;100.00;101516.25;5083869;28;20117;-67
2023/01/01 05:26:28;;;;;;;15.82;9.85;;;;;;;7.87;100.00;101517.28;5073655;28;20036;-68
2023/01/01 05:28:55;;;;;;;17.00;10.13;;;;;;;7.85;100.00;101516.50;5075979;28;20368;-67
2023/01/01 05:31:23;;;;;;;16.88;9.93;;;;;;;7.79;100.00;101519.53;5075643;28;20028;-67
2023/01/01 05:33:51;;;;;;;18.23;9.73;;;;;;;7.78;100.00;101524.03;5070938;28;20441;-67
2023/01/01 05:36:18;;;;;;;17.67;10.30;;;;;;;7.63;100.00;101503.53;5077119;28;20017;-67
2023/01/01 05:38:44;;;;;;;15.90;10.52;;;;;;;7.71;100.00;101516.44;5078051;28;20024;-67
2023/01/01 05:41:13;;;;;;;18.02;11.02;;;;;;;7.77;100.00;101529.47;5073033;28;20104;-67
2023/01/01 05:43:38;;;;;;;17.05;10.98;;;;;;;7.75;100.00;101531.34;5076514;28;20193;-67
2023/01/01 05:46:10;;;;;;;17.20;12.32;;;;;;;7.73;100.00;101527.88;5073332;28;20076;-67
2023/01/01 05:48:36;;;;;;;20.52;12.30;;;;;;;7.72;100.00;101524.38;5079773;28;20125;-67
2023/01/01 05:51:04;;;;;;;18.38;11.98;;;;;;;7.65;100.00;101517.66;5071534;28;20068;-67
2023/01/01 05:53:30;;;;;;;19.67;12.90;;;;;;;7.72;100.00;101523.50;5077668;28;20028;-67
2023/01/01 05:55:55;;;;;;;21.48;13.30;;;;;;;7.64;100.00;101515.09;5072192;28;20047;-67
2023/01/01 05:58:21;;;;;;;19.55;13.05;;;;;;;7.67;100.00;101510.41;5070560;28;20107;-67
2023/01/01 06:00:46;;;;;;;24.67;15.15;;;;;;;7.62;100.00;101516.97;5070616;28;20048;-67
2023/01/01 06:03:11;;;;;;;25.23;15.40;;;;;;;7.60;100.00;101513.50;5079125;28;20032;-67
2023/01/01 06:05:37;;;;;;;27.55;16.27;;;;;;;7.59;100.00;101520.69;5077832;28;20044;-68
2023/01/01 06:08:02;;;;;;;23.73;16.13;;;;;;;7.55;100.00;101523.59;5073242;28;20039;-67
2023/01/01 06:10:28;;;;;;;27.08;17.05;;;;;;;7.38;100.00;101487.16;5064931;28;20141;-67
2023/01/01 06:12:58;;;;;;;23.60;16.70;;;;;;;7.51;100.00;101509.56;5079583;28;20032;-67
2023/01/01 06:15:25;;;;;;;28.00;16.58;;;;;;;7.49;100.00;101516.81;5063465;28;20079;-67
2023/01/01 06:17:51;;;;;;;23.40;16.63;;;;;;;7.49;100.00;101514.13;5067802;28;20024;-67
2023/01/01 06:20:16;;;;;;;27.42;16.17;;;;;;;7.51;100.00;101516.72;5073312;28;20020;-67
2023/01/01 06:22:42;;;;;;;25.33;16.02;;;;;;;7.41;100.00;101503.00;5058610;28;20036;-67
2023/01/01 06:25:08;;;;;;;24.13;16.52;;;;;;;7.27;100.00;101478.03;5060282;28;20040;-67
2023/01/01 06:27:35;;;;;;;29.85;17.00;;;;;;;7.48;100.00;101519.56;5060268;28;20033;-68
2023/01/01 06:30:01;;;;;;;29.08;16.70;;;;;;;7.43;100.00;101522.47;5067029;28;20093;-67
2023/01/01 06:32:26;;;;;;;24.98;16.00;;;;;;;7.52;100.00;101529.13;5081825;28;20067;-68
2023/01/01 06:34:51;;;;;;;27.90;16.02;;;;;;;7.50;100.00;101539.88;5078144;28;20621;-67
2023/01/01 06:37:17;;;;;;;25.90;16.77;;;;;;;7.50;100.00;101531.00;5064586;28;20093;-68
2023/01/01 06:39:42;;;;;;;29.52;17.90;;;;;;;7.43;100.00;101526.94;5068893;28;20085;-68
2023/01/01 06:42:08;;;;;;;32.17;17.40;;;;;;;7.54;100.00;101545.91;5073144;28;20052;-68
2023/01/01 06:44:34;;;;;;;30.70;17.00;;;;;;;7.55;100.00;101550.31;5079552;28;20043;-68
2023/01/01 06:47:00;;;;;;;30.90;16.17;;;;;;;7.43;100.00;101529.63;5071535;28;20051;-68
2023/01/01 06:49:25;;;;;;;26.25;16.20;;;;;;;7.54;100.00;101546.75;5072778;28;20032;-68
2023/01/01 06:51:50;;;;;;;23.88;14.43;;;;;;;7.59;100.00;101549.16;5077373;28;20038;-68
2023/01/01 06:54:16;;;;;;;25.67;15.65;;;;;;;7.61;100.00;101545.47;5075835;28;20028;-68
2023/01/01 06:56:42;;;;;;;22.80;14.75;;;;;;;7.64;100.00;101550.63;5065437;28;20055;-68
2023/01/01 06:59:07;;;;;;;23.10;14.68;;;;;;;7.66;100.00;101545.22;5083196;28;20031;-68
2023/01/01 07:01:34;;;;;;;22.35;14.77;;;;;;;7.65;100.00;101543.50;5074969;28;20033;-67
2023/01/01 07:04:07;;;;;;;23.75;15.27;;;;;;;7.73;100.00;101546.59;5070254;28;20028;-68
2023/01/01 07:06:33;;;;;;;23.02;14.63;;;;;;;7.78;100.00;101552.53;5076794;28;20027;-68
2023/01/01 07:09:00;;;;;;;23.15;14.75;;;;;;;7.83;100.00;101562.00;5063637;28;20040;-68
2023/01/01 07:11:26;;;;;;;21.27;15.35;;;;;;;7.80;100.00;101550.66;5073471;28;20035;-68
2023/01/01 07:13:51;;;;;;;25.35;14.57;;;;;;;7.88;100.00;101567.97;5069993;28;20060;-68
2023/01/01 07:16:17;;;;;;;24.98;15.55;;;;;;;7.97;100.00;101569.25;5080212;28;20072;-68
2023/01/01 07:18:42;;;;;;;23.92;15.18;;;;;;;7.99;100.00;101570.00;5065506;28;20079;-68
2023/01/01 07:21:29;;;;;;;19.38;14.32;;;;;;;8.09;100.00;101576.56;5083180;28;20043;-68
2023/01/01 07:23:56;;;;;;;24.52;14.45;;;;;;;8.13;100.00;101584.28;5070107;28;20036;-68
2023/01/01 07:26:26;;;;;;;22.00;13.98;;;;;;;8.18;100.00;101586.69;5061849;28;20439;-68
2023/01/01 07:28:51;;;;;;;18.10;13.18;;;;;;;8.23;100.00;101592.69;5079605;28;20486;-69
2023/01/01 07:31:17;;;;;;;27.52;14.93;;;;;;;8.29;100.00;101600.34;5069709;28;20156;-69
2023/01/01 07:33:42;;;;;;;21.55;13.40;;;;;;;8.27;100.00;101588.88;5066859;28;20395;-69
2023/01/01 07:36:08;;;;;;;21.88;13.68;;;;;;;8.38;100.00;101606.00;5070846;28;20036;-69
2023/01/01 07:38:33;;;;;;;19.23;13.52;;;;;;;8.42;100.00;101606.69;5064781;28;20136;-67
2023/01/01 07:40:58;;;;;;;21.55;13.45;;;;;;;8.47;100.00;101605.47;5079372;28;20044;-67
2023/01/01 07:43:24;;;;;;;19.58;12.75;;;;;;;8.54;100.00;101605.97;5061995;28;20051;-67
2023/01/01 07:45:49;;;;;;;21.25;13.68;;;;;;;8.54;100.00;101595.28;5074038;28;20062;-67
2023/01/01 07:48:15;;;;;;;20.02;12.63;;;;;;;8.63;100.00;101608.09;5078954;28;20075;-68
2023/01/01 07:50:42;;;;;;;21.58;13.48;;;;;;;8.65;100.00;101598.19;5066235;28;20112;-68
2023/01/01 07:53:08;;;;;;;19.52;13.40;;;;;;;8.76;100.00;101607.28;5081933;28;20740;-68
2023/01/01 07:55:33;;;;;;;21.98;12.93;;;;;;;8.81;100.00;101599.00;5074283;28;20093;-68
2023/01/01 07:57:59;;;;;;;19.35;13.05;;;;;;;8.89;100.00;101607.41;5075284;28;20044;-67
2023/01/01 08:00:25;;;;;;;20.40;11.63;;;;;;;8.96;100.00;101606.94;5078303;28;20093;-67
2023/01/01 08:02:50;;;;;;;21.58;12.65;;;;;;;9.04;100.00;101612.72;5066455;28;20024;-67
2023/01/01 08:05:16;;;;;;;20.70;13.38;;;;;;;9.05;100.00;101592.13;5078355;28;20040;-67
2023/01/01 08:07:46;;;;;;;20.75;12.40;;;;;;;9.05;100.00;101581.44;5068778;28;20035;-67
2023/01/01 08:10:12;;;;;;;17.50;12.07;;;;;;;9.29;100.00;101601.34;5070327;28;20036;-67
2023/01/01 08:12:38;;;;;;;18.55;12.48;;;;;;;9.32;100.00;101606.47;5080376;28;20039;-67
2023/01/01 08:15:04;;;;;;;18.55;11.52;;;;;;;9.46;100.00;101613.66;5064264;28;20123;-67
2023/01/01 08:17:30;;;;;;;17.35;11.07;;;;;;;9.54;100.00;101611.38;5068586;28;20703;-67
2023/01/01 08:19:55;;;;;;;16.20;10.60;;;;;;;9.68;100.00;101608.69;5068310;27;20505;-67
2023/01/01 08:22:20;;;;;;;18.77;10.63;;;;;;;9.56;100.00;101575.50;5085896;28;20052;-67
2023/01/01 08:24:46;;;;;;;17.77;11.00;;;;;;;9.83;100.00;101607.72;5071201;28;20068;-67
2023/01/01 08:27:13;;;;;;;17.75;10.40;;;;;;;9.91;100.00;101603.56;5075415;28;20027;-67
2023/01/01 08:29:39;;;;;;;18.30;10.43;;;;;;;10.02;100.00;101602.84;5071939;28;20039;-67
2023/01/01 08:32:04;;;;;;;14.38;9.93;;;;;;;10.07;100.00;101595.44;5077327;28;20028;-66
2023/01/01 08:34:30;;;;;;;16.33;9.35;;;;;;;10.13;100.00;101589.66;5072001;28;20032;-67
2023/01/01 08:36:55;;;;;;;16.13;9.88;;;;;;;10.27;100.00;101605.69;5072815;28;20038;-66
2023/01/01 08:39:21;;;;;;;11.65;8.15;;;;;;;10.29;100.00;101607.31;5080444;28;20497;-66
2023/01/01 08:41:46;;;;;;;12.82;8.88;;;;;;;10.44;100.00;101611.66;5073378;28;20043;-66
2023/01/01 08:44:11;;;;;;;13.40;8.48;;;;;;;10.55;100.00;101608.25;5081134;28;20028;-67
2023/01/01 08:46:37;;;;;;;16.52;8.93;;;;;;;10.61;100.00;101614.06;5071327;28;20044;-67
2023/01/01 08:49:02;;;;;;;15.00;9.48;;;;;;;10.68;100.00;101610.00;5073134;28;20463;-67
2023/01/01 08:51:28;;;;;;;16.98;9.23;;;;;;;10.78;100.00;101616.50;5076513;28;20051;-67
2023/01/01 08:53:53;;;;;;;13.98;9.07;;;;;;;10.79;100.00;101595.84;5069303;28;20523;-67
2023/01/01 08:56:19;;;;;;;12.98;8.07;;;;;;;10.96;100.00;101611.66;5075150;28;20033;-67
2023/01/01 08:58:44;;;;;;;12.38;8.50;;;;;;;11.09;100.00;101617.91;5081451;28;20032;-67
2023/01/01 09:01:10;;;;;;;12.82;8.73;;;;;;;11.17;100.00;101615.56;5074926;28;20042;-67
2023/01/01 09:03:36;;;;;;;14.27;8.38;;;;;;;11.20;100.00;101593.84;5074503;28;20333;-67
2023/01/01 09:06:02;;;;;;;15.02;9.05;;;;;;;11.32;100.00;101601.91;5082827;28;20060;-67
2023/01/01 09:08:28;;;;;;;11.32;8.20;;;;;;;11.43;100.00;101598.47;5083108;28;20035;-67
2023/01/01 09:10:59;;;;;;;16.02;10.27;;;;;;;11.53;100.00;101595.03;5071533;28;20028;-67
2023/01/01 09:13:24;;;;;;;14.77;9.55;;;;;;;11.64;100.00;101590.75;5078515;28;20032;-68
2023/01/01 09:15:50;;;;;;;12.63;8.93;;;;;;;11.65;100.00;101570.94;5068882;28;20070;-66
2023/01/01 09:18:15;;;;;;;15.65;8.30;;;;;;;11.83;100.00;101578.53;5082215;28;20486;-67
2023/01/01 09:20:40;;;;;;;11.27;6.97;;;;;;;12.08;100.00;101585.63;5075329;28;20767;-67
2023/01/01 09:23:07;;;;;;;10.63;6.07;;;;;;;12.06;100.00;101553.47;5069953;28;20048;-67
2023/01/01 09:25:34;;;;;;;10.15;6.40;;;;;;;12.32;100.00;101579.28;5074489;28;20028;-67
2023/01/01 09:28:01;;;;;;;8.88;6.13;;;;;;;12.50;100.00;101574.34;5080568;28;20530;-68
2023/01/01 09:30:27;;;;;;;12.68;6.05;;;;;;;12.64;99.39;101582.25;5075583;28;20093;-68
2023/01/01 09:32:52;;;;;;;9.13;5.82;;;;;;;12.60;99.40;101562.78;5072732;28;20032;-68
2023/01/01 09:35:18;;;;;;;8.52;5.55;;;;;;;12.78;98.92;101582.06;5075739;28;20031;-68
2023/01/01 09:37:44;;;;;;;8.57;5.85;;;;;;;12.86;98.67;101585.00;5072081;28;20075;-68
2023/01/01 09:40:33;;;;;;;12.90;6.00;;;;;;;12.96;97.11;101578.78;5069475;28;20716;-68
2023/01/01 09:43:30;;;;;;;8.15;5.50;;;;;;;13.02;96.65;101575.66;5069936;28;20036;-68
2023/01/01 09:46:02;;;;;;;8.18;5.05;;;;;;;13.11;96.60;101576.78;5083082;28;20036;-68
2023/01/01 09:48:30;;;;;;;9.52;5.60;;;;;;;13.15;96.57;101576.41;5077079;28;20449;-68
2023/01/01 09:50:58;;;;;;;8.85;5.15;;;;;;;13.22;95.92;101576.81;5077403;28;20028;-68
2023/01/01 09:53:33;;;;;;;9.68;5.70;;;;;;;13.29;95.61;101575.34;5073866;28;20122;-68
2023/01/01 09:56:01;;;;;;;8.95;5.80;;;;;;;13.36;95.27;101563.09;5072452;28;20071;-68
2023/01/01 09:58:36;;;;;;;8.55;4.78;;;;;;;13.46;94.38;101567.63;5081089;28;20557;-69
2023/01/01 10:01:15;;;;;;;7.80;5.05;;;;;;;13.48;92.67;101540.56;5075260;28;20529;-68
2023/01/01 10:03:52;;;;;;;8.73;5.10;;;;;;;13.65;92.57;101564.31;5071570;28;20405;-68
2023/01/01 10:06:23;;;;;;;8.65;5.53;;;;;;;13.58;92.80;101541.53;5083042;28;20551;-68
2023/01/01 10:09:21;;;;;;;8.20;5.28;;;;;;;13.77;91.94;101558.75;5085797;28;20032;-68
2023/01/01 10:12:10;;;;;;;10.80;5.50;;;;;;;13.84;91.51;101569.06;5070252;28;20120;-68
2023/01/01 10:14:49;;;;;;;6.55;4.78;;;;;;;13.86;90.01;101557.16;5067769;27;20036;-68
2023/01/01 10:17:17;;;;;;;7.15;4.32;;;;;;;13.97;90.34;101565.25;5070399;28;20032;-68
2023/01/01 10:19:46;;;;;;;9.07;5.20;;;;;;;14.12;88.85;101563.94;5071131;28;20146;-68
2023/01/01 10:22:42;;;;;;;7.55;4.65;;;;;;;14.16;88.61;101557.34;5086044;28;20522;-68
2023/01/01 10:25:21;;;;;;;9.77;5.03;;;;;;;14.25;88.55;101558.44;5074510;28;20048;-67
2023/01/01 10:27:52;;;;;;;10.57;5.15;;;;;;;14.17;88.43;101529.38;5075013;28;20050;-67
2023/01/01 10:30:20;;;;;;;8.65;4.40;;;;;;;14.23;87.54;101522.63;5067695;28;20140;-67
2023/01/01 10:32:51;;;;;;;7.00;4.20;;;;;;;14.39;87.15;101540.09;5065045;28;20031;-67
2023/01/01 10:35:29;;;;;;;8.35;4.13;;;;;;;14.37;86.45;101527.72;5070647;28;20371;-67
2023/01/01 10:37:57;;;;;;;6.45;4.28;;;;;;;14.51;85.80;101538.22;5070696;28;20089;-67
2023/01/01 10:40:25;;;;;;;6.50;4.05;;;;;;;14.60;82.08;101510.41;5067058;28;20048;-67
2023/01/01 10:42:53;;;;;;;5.50;3.90;;;;;;;14.83;82.29;101536.31;5067444;28;20027;-67
2023/01/01 10:45:28;;;;;;;8.55;4.47;;;;;;;14.84;82.17;101530.78;5084750;28;20068;-67
2023/01/01 10:48:16;;;;;;;6.85;4.10;;;;;;;14.98;80.41;101535.84;5074471;28;20152;-67
2023/01/01 10:50:43;;;;;;;5.75;4.13;;;;;;;15.02;80.53;101533.72;5083494;28;20470;-67
2023/01/01 10:53:51;;;;;;;5.97;3.80;;;;;;;15.05;80.58;101531.63;5064653;28;20024;-67
2023/01/01 10:56:22;;;;;;;9.75;4.28;;;;;;;15.05;80.22;101528.91;5055418;28;20051;-67
2023/01/01 10:58:55;;;;;;;8.55;3.88;;;;;;;15.17;78.31;101527.84;5065792;28;20111;-67
2023/01/01 11:01:29;;;;;;;8.70;4.70;;;;;;;15.22;78.15;101528.28;5063381;28;20028;-69
2023/01/01 11:04:20;;;;;;;6.25;4.03;;;;;;;15.24;78.34;101512.78;5065201;28;20048;-66
2023/01/01 11:06:46;;;;;;;6.65;4.03;;;;;;;15.18;78.66;101499.81;5081347;28;20043;-67
2023/01/01 11:09:22;;;;;;;5.57;3.85;;;;;;;15.29;77.91;101510.53;5085064;28;20031;-66
2023/01/01 11:12:00;;;;;;;6.97;4.15;;;;;;;15.26;77.93;101507.25;5076501;28;20493;-67
2023/01/01 11:14:36;;;;;;;10.80;5.00;;;;;;;15.28;77.94;101508.81;5079312;28;20048;-67
2023/01/01 11:17:01;;;;;;;7.45;4.03;;;;;;;15.37;76.92;101509.88;5084457;28;20078;-67
2023/01/01 11:19:35;;;;;;;8.15;4.30;;;;;;;15.41;76.91;101509.47;5085349;28;20051;-67
2023/01/01 11:22:01;;;;;;;7.90;4.38;;;;;;;15.35;77.13;101488.34;5068617;28;20073;-67
2023/01/01 11:24:34;;;;;;;10.13;4.50;;;;;;;15.40;77.26;101505.06;5080391;28;20040;-68
2023/01/01 11:27:19;;;;;;;6.85;4.15;;;;;;;15.35;77.14;101499.16;5073631;28;20036;-68